sensor_id;sensor_type;location;lat;lon;timestamp;temperature;humidity
4530;DHT22;2277;51.626;7.516;2023-01-25T00:01:51;2.90;99.90
4530;DHT22;2277;51.626;7.516;2023-01-25T00:04:22;2.90;99.90
4530;DHT22;2277;51.626;7.516;2023-01-25T00:06:48;2.90;99.90
4530;DHT22;2277;51.626;7.516;2023-01-25T00:09:15;2.70;99.90
4530;DHT22;2277;51.626;7.516;2023-01-25T00:11:41;2.70;99.90
4530;DHT22;2277;51.626;7.516;2023-01-25T00:14:09;2.60;99.90
4530;DHT22;2277;51.626;7.516;2023-01-25T00:16:35;2.60;99.90
4530;DHT22;2277;51.626;7.516;2023-01-25T00:19:02;2.60;99.90
4530;DHT22;2277;51.626;7.516;2023-01-25T00:21:27;2.70;99.90
4530;DHT22;2277;51.626;7.516;2023-01-25T00:23:53;2.60;99.90
4530;DHT22;2277;51.626;7.516;2023-01-25T00:26:19;2.60;99.90
4530;DHT22;2277;51.626;7.516;2023-01-25T00:28:49;2.50;99.90
4530;DHT22;2277;51.626;7.516;2023-01-25T00:39:26;2.40;99.90
4530;DHT22;2277;51.626;7.516;2023-01-25T00:41:52;2.50;99.90
4530;DHT22;2277;51.626;7.516;2023-01-25T00:44:17;2.50;99.90
4530;DHT22;2277;51.626;7.516;2023-01-25T00:46:43;2.60;99.90
4530;DHT22;2277;51.626;7.516;2023-01-25T00:51:45;2.70;99.90
4530;DHT22;2277;51.626;7.516;2023-01-25T00:54:11;2.60;99.90
4530;DHT22;2277;51.626;7.516;2023-01-25T00:56:36;2.50;99.90
4530;DHT22;2277;51.626;7.516;2023-01-25T00:59:02;2.50;99.90
4530;DHT22;2277;51.626;7.516;2023-01-25T01:01:27;2.50;99.90
4530;DHT22;2277;51.626;7.516;2023-01-25T01:03:53;2.50;99.90
4530;DHT22;2277;51.626;7.516;2023-01-25T01:06:18;2.40;99.90
4530;DHT22;2277;51.626;7.516;2023-01-25T01:08:44;2.40;99.90
4530;DHT22;2277;51.626;7.516;2023-01-25T01:11:11;2.40;99.90
4530;DHT22;2277;51.626;7.516;2023-01-25T01:13:37;2.30;99.90
4530;DHT22;2277;51.626;7.516;2023-01-25T01:16:06;2.20;99.90
4530;DHT22;2277;51.626;7.516;2023-01-25T01:18:40;2.10;99.90
4530;DHT22;2277;51.626;7.516;2023-01-25T01:21:06;2.20;99.90
4530;DHT22;2277;51.626;7.516;2023-01-25T01:23:35;2.20;99.90
4530;DHT22;2277;51.626;7.516;2023-01-25T01:26:03;2.20;99.90
4530;DHT22;2277;51.626;7.516;2023-01-25T01:28:30;2.20;99.90
4530;DHT22;2277;51.626;7.516;2023-01-25T01:31:00;2.20;99.90
4530;DHT22;2277;51.626;7.516;2023-01-25T01:33:26;2.20;99.90
4530;DHT22;2277;51.626;7.516;2023-01-25T01:35:51;2.40;99.90
4530;DHT22;2277;51.626;7.516;2023-01-25T01:38:17;2.50;99.90
4530;DHT22;2277;51.626;7.516;2023-01-25T01:40:47;2.60;99.90
4530;DHT22;2277;51.626;7.516;2023-01-25T01:43:23;2.70;99.90
4530;DHT22;2277;51.626;7.516;2023-01-25T01:45:53;2.80;99.90
4530;DHT22;2277;51.626;7.516;2023-01-25T01:53:53;2.90;99.90
4530;DHT22;2277;51.626;7.516;2023-01-25T01:56:29;2.90;99.90
4530;DHT22;2277;51.626;7.516;2023-01-25T01:58:56;2.80;99.90
4530;DHT22;2277;51.626;7.516;2023-01-25T02:01:23;2.80;99.90
4530;DHT22;2277;51.626;7.516;2023-01-25T02:03:49;2.80;99.90
4530;DHT22;2277;51.626;7.516;2023-01-25T02:06:24;2.80;99.90
4530;DHT22;2277;51.626;7.516;2023-01-25T02:08:52;2.90;99.90
4530;DHT22;2277;51.626;7.516;2023-01-25T02:11:19;2.70;99.90
4530;DHT22;2277;51.626;7.516;2023-01-25T02:13:46;2.50;99.90
4530;DHT22;2277;51.626;7.516;2023-01-25T02:16:19;2.50;99.90
4530;DHT22;2277;51.626;7.516;2023-01-25T02:18:47;2.60;99.90
4530;DHT22;2277;51.626;7.516;2023-01-25T02:21:12;2.70;99.90
4530;DHT22;2277;51.626;7.516;2023-01-25T02:23:50;2.70;99.90
4530;DHT22;2277;51.626;7.516;2023-01-25T02:26:18;2.70;99.90
4530;DHT22;2277;51.626;7.516;2023-01-25T02:29:13;2.60;99.90
4530;DHT22;2277;51.626;7.516;2023-01-25T02:31:38;2.60;99.90
4530;DHT22;2277;51.626;7.516;2023-01-25T02:34:04;2.60;99.90
4530;DHT22;2277;51.626;7.516;2023-01-25T02:36:32;2.40;99.90
4530;DHT22;2277;51.626;7.516;2023-01-25T02:39:03;2.40;99.90
4530;DHT22;2277;51.626;7.516;2023-01-25T02:41:40;2.30;99.90
4530;DHT22;2277;51.626;7.516;2023-01-25T02:44:17;2.20;99.90
4530;DHT22;2277;51.626;7.516;2023-01-25T02:46:43;2.30;99.90
4530;DHT22;2277;51.626;7.516;2023-01-25T02:49:13;2.10;99.90
4530;DHT22;2277;51.626;7.516;2023-01-25T02:51:44;2.00;99.90
4530;DHT22;2277;51.626;7.516;2023-01-25T02:54:12;2.10;99.90
4530;DHT22;2277;51.626;7.516;2023-01-25T02:56:38;2.10;99.90
4530;DHT22;2277;51.626;7.516;2023-01-25T02:59:10;2.30;99.90
4530;DHT22;2277;51.626;7.516;2023-01-25T03:01:40;2.40;99.90
4530;DHT22;2277;51.626;7.516;2023-01-25T03:04:06;2.40;99.90
4530;DHT22;2277;51.626;7.516;2023-01-25T03:06:32;2.40;99.90
4530;DHT22;2277;51.626;7.516;2023-01-25T03:08:58;2.50;99.90
4530;DHT22;2277;51.626;7.516;2023-01-25T03:11:24;2.30;99.90
4530;DHT22;2277;51.626;7.516;2023-01-25T03:13:50;2.20;99.90
4530;DHT22;2277;51.626;7.516;2023-01-25T03:16:16;2.20;99.90
4530;DHT22;2277;51.626;7.516;2023-01-25T03:18:42;2.20;99.90
4530;DHT22;2277;51.626;7.516;2023-01-25T03:23:34;2.40;99.90
4530;DHT22;2277;51.626;7.516;2023-01-25T03:26:08;2.30;99.90
4530;DHT22;2277;51.626;7.516;2023-01-25T03:28:34;2.20;99.90
4530;DHT22;2277;51.626;7.516;2023-01-25T03:31:00;2.20;99.90
4530;DHT22;2277;51.626;7.516;2023-01-25T03:33:25;2.00;99.90
4530;DHT22;2277;51.626;7.516;2023-01-25T03:35:52;1.90;99.90
4530;DHT22;2277;51.626;7.516;2023-01-25T03:38:18;2.00;99.90
4530;DHT22;2277;51.626;7.516;2023-01-25T03:40:47;2.00;99.90
4530;DHT22;2277;51.626;7.516;2023-01-25T03:43:13;2.00;99.90
4530;DHT22;2277;51.626;7.516;2023-01-25T03:45:38;2.00;99.90
4530;DHT22;2277;51.626;7.516;2023-01-25T03:48:04;2.00;99.90
4530;DHT22;2277;51.626;7.516;2023-01-25T03:50:30;2.00;99.90
4530;DHT22;2277;51.626;7.516;2023-01-25T03:52:56;2.10;99.90
4530;DHT22;2277;51.626;7.516;2023-01-25T03:55:27;2.10;99.90
4530;DHT22;2277;51.626;7.516;2023-01-25T03:57:52;2.10;99.90
4530;DHT22;2277;51.626;7.516;2023-01-25T04:00:18;1.90;99.90
4530;DHT22;2277;51.626;7.516;2023-01-25T04:02:45;1.80;99.90
4530;DHT22;2277;51.626;7.516;2023-01-25T04:05:11;1.90;99.90
4530;DHT22;2277;51.626;7.516;2023-01-25T04:07:37;2.00;99.90
4530;DHT22;2277;51.626;7.516;2023-01-25T04:10:04;2.10;99.90
4530;DHT22;2277;51.626;7.516;2023-01-25T04:12:29;2.10;99.90
4530;DHT22;2277;51.626;7.516;2023-01-25T04:14:55;2.00;99.90
4530;DHT22;2277;51.626;7.516;2023-01-25T04:17:20;2.00;99.90
4530;DHT22;2277;51.626;7.516;2023-01-25T04:19:46;2.00;99.90
4530;DHT22;2277;51.626;7.516;2023-01-25T04:22:12;1.90;99.90
4530;DHT22;2277;51.626;7.516;2023-01-25T04:24:38;1.80;99.90
4530;DHT22;2277;51.626;7.516;2023-01-25T04:27:04;1.90;99.90
4530;DHT22;2277;51.626;7.516;2023-01-25T04:29:30;1.80;99.90
4530;DHT22;2277;51.626;7.516;2023-01-25T04:31:55;1.90;99.90
4530;DHT22;2277;51.626;7.516;2023-01-25T04:34:21;1.90;99.90
4530;DHT22;2277;51.626;7.516;2023-01-25T04:36:46;1.70;99.90
4530;DHT22;2277;51.626;7.516;2023-01-25T04:39:12;1.60;99.90
4530;DHT22;2277;51.626;7.516;2023-01-25T04:41:38;1.60;99.90
4530;DHT22;2277;51.626;7.516;2023-01-25T04:44:03;1.50;99.90
4530;DHT22;2277;51.626;7.516;2023-01-25T04:46:29;1.60;99.90
4530;DHT22;2277;51.626;7.516;2023-01-25T04:48:54;1.60;99.90
4530;DHT22;2277;51.626;7.516;2023-01-25T04:51:20;1.60;99.90
4530;DHT22;2277;51.626;7.516;2023-01-25T04:53:46;1.60;99.90
4530;DHT22;2277;51.626;7.516;2023-01-25T04:56:11;1.80;99.90
4530;DHT22;2277;51.626;7.516;2023-01-25T04:58:37;1.80;99.90
4530;DHT22;2277;51.626;7.516;2023-01-25T05:01:03;1.90;99.90
4530;DHT22;2277;51.626;7.516;2023-01-25T05:03:29;2.00;99.90
4530;DHT22;2277;51.626;7.516;2023-01-25T05:05:54;2.10;99.90
4530;DHT22;2277;51.626;7.516;2023-01-25T05:08:20;2.20;99.90
4530;DHT22;2277;51.626;7.516;2023-01-25T05:10:46;2.20;99.90
4530;DHT22;2277;51.626;7.516;2023-01-25T05:13:11;1.90;99.90
4530;DHT22;2277;51.626;7.516;2023-01-25T05:15:37;1.80;99.90
4530;DHT22;2277;51.626;7.516;2023-01-25T05:18:03;1.90;99.90
4530;DHT22;2277;51.626;7.516;2023-01-25T05:20:28;1.90;99.90
4530;DHT22;2277;51.626;7.516;2023-01-25T05:22:54;1.90;99.90
4530;DHT22;2277;51.626;7.516;2023-01-25T05:25:19;2.00;99.90
4530;DHT22;2277;51.626;7.516;2023-01-25T05:28:05;2.00;99.90
4530;DHT22;2277;51.626;7.516;2023-01-25T05:30:31;2.00;99.90
4530;DHT22;2277;51.626;7.516;2023-01-25T05:32:57;1.90;99.90
4530;DHT22;2277;51.626;7.516;2023-01-25T05:35:22;2.00;99.90
4530;DHT22;2277;51.626;7.516;2023-01-25T05:37:48;2.00;99.90
4530;DHT22;2277;51.626;7.516;2023-01-25T05:40:13;1.80;99.90
4530;DHT22;2277;51.626;7.516;2023-01-25T05:42:39;1.70;99.90
4530;DHT22;2277;51.626;7.516;2023-01-25T05:45:06;1.60;99.90
4530;DHT22;2277;51.626;7.516;2023-01-25T05:47:32;1.60;99.90
4530;DHT22;2277;51.626;7.516;2023-01-25T05:49:58;1.50;99.90
4530;DHT22;2277;51.626;7.516;2023-01-25T05:52:23;1.50;99.90
4530;DHT22;2277;51.626;7.516;2023-01-25T05:54:49;1.70;99.90
4530;DHT22;2277;51.626;7.516;2023-01-25T05:57:15;1.70;99.90
4530;DHT22;2277;51.626;7.516;2023-01-25T05:59:41;1.80;99.90
4530;DHT22;2277;51.626;7.516;2023-01-25T06:02:06;1.60;99.90
4530;DHT22;2277;51.626;7.516;2023-01-25T06:04:32;1.60;99.90
4530;DHT22;2277;51.626;7.516;2023-01-25T06:06:57;1.70;99.90
4530;DHT22;2277;51.626;7.516;2023-01-25T06:09:23;1.60;99.90
4530;DHT22;2277;51.626;7.516;2023-01-25T06:11:49;1.50;99.90
4530;DHT22;2277;51.626;7.516;2023-01-25T06:14:14;1.50;99.90
4530;DHT22;2277;51.626;7.516;2023-01-25T06:16:40;1.70;99.90
4530;DHT22;2277;51.626;7.516;2023-01-25T06:19:07;1.70;99.90
4530;DHT22;2277;51.626;7.516;2023-01-25T06:21:33;1.50;99.90
4530;DHT22;2277;51.626;7.516;2023-01-25T06:24:02;1.50;99.90
4530;DHT22;2277;51.626;7.516;2023-01-25T06:26:27;1.40;99.90
4530;DHT22;2277;51.626;7.516;2023-01-25T06:28:53;1.50;99.90
4530;DHT22;2277;51.626;7.516;2023-01-25T06:31:18;1.40;99.90
4530;DHT22;2277;51.626;7.516;2023-01-25T06:33:49;1.60;99.90
4530;DHT22;2277;51.626;7.516;2023-01-25T06:36:18;1.80;99.90
4530;DHT22;2277;51.626;7.516;2023-01-25T06:38:48;1.70;99.90
4530;DHT22;2277;51.626;7.516;2023-01-25T06:41:14;1.80;99.90
4530;DHT22;2277;51.626;7.516;2023-01-25T06:43:40;1.70;99.90
4530;DHT22;2277;51.626;7.516;2023-01-25T06:46:09;1.70;99.90
4530;DHT22;2277;51.626;7.516;2023-01-25T06:48:36;1.70;99.90
4530;DHT22;2277;51.626;7.516;2023-01-25T06:51:05;1.80;99.90
4530;DHT22;2277;51.626;7.516;2023-01-25T06:53:34;1.90;99.90
4530;DHT22;2277;51.626;7.516;2023-01-25T06:56:10;2.00;99.90
4530;DHT22;2277;51.626;7.516;2023-01-25T06:58:37;2.00;99.90
4530;DHT22;2277;51.626;7.516;2023-01-25T07:01:06;2.00;99.90
4530;DHT22;2277;51.626;7.516;2023-01-25T07:03:32;2.10;99.90
4530;DHT22;2277;51.626;7.516;2023-01-25T07:06:04;2.20;99.90
4530;DHT22;2277;51.626;7.516;2023-01-25T07:08:30;2.20;99.90
4530;DHT22;2277;51.626;7.516;2023-01-25T07:10:58;2.20;99.90
4530;DHT22;2277;51.626;7.516;2023-01-25T07:13:25;2.20;99.90
4530;DHT22;2277;51.626;7.516;2023-01-25T07:15:56;2.20;99.90
4530;DHT22;2277;51.626;7.516;2023-01-25T07:18:22;2.30;99.90
4530;DHT22;2277;51.626;7.516;2023-01-25T07:20:49;2.40;99.90
4530;DHT22;2277;51.626;7.516;2023-01-25T07:23:15;2.40;99.90
4530;DHT22;2277;51.626;7.516;2023-01-25T07:25:45;2.40;99.90
4530;DHT22;2277;51.626;7.516;2023-01-25T07:28:11;2.40;99.90
4530;DHT22;2277;51.626;7.516;2023-01-25T07:30:37;2.50;99.90
4530;DHT22;2277;51.626;7.516;2023-01-25T07:33:02;2.50;99.90
4530;DHT22;2277;51.626;7.516;2023-01-25T07:35:28;2.50;99.90
4530;DHT22;2277;51.626;7.516;2023-01-25T07:37:54;2.60;99.90
4530;DHT22;2277;51.626;7.516;2023-01-25T07:40:20;2.60;99.90
4530;DHT22;2277;51.626;7.516;2023-01-25T07:42:49;2.60;99.90
4530;DHT22;2277;51.626;7.516;2023-01-25T07:45:15;2.50;99.90
4530;DHT22;2277;51.626;7.516;2023-01-25T07:47:41;2.50;99.90
4530;DHT22;2277;51.626;7.516;2023-01-25T07:50:07;2.50;99.90
4530;DHT22;2277;51.626;7.516;2023-01-25T07:52:33;2.50;99.90
4530;DHT22;2277;51.626;7.516;2023-01-25T07:54:58;2.50;99.90
4530;DHT22;2277;51.626;7.516;2023-01-25T07:57:24;2.60;99.90
4530;DHT22;2277;51.626;7.516;2023-01-25T07:59:50;2.60;99.90
4530;DHT22;2277;51.626;7.516;2023-01-25T08:02:15;2.60;99.90
4530;DHT22;2277;51.626;7.516;2023-01-25T08:04:41;2.60;99.90
4530;DHT22;2277;51.626;7.516;2023-01-25T08:07:07;2.60;99.90
4530;DHT22;2277;51.626;7.516;2023-01-25T08:09:33;2.60;99.90
4530;DHT22;2277;51.626;7.516;2023-01-25T08:11:58;2.60;99.90
4530;DHT22;2277;51.626;7.516;2023-01-25T08:14:24;2.60;99.90
4530;DHT22;2277;51.626;7.516;2023-01-25T08:16:50;2.70;99.90
4530;DHT22;2277;51.626;7.516;2023-01-25T08:19:15;2.70;99.90
4530;DHT22;2277;51.626;7.516;2023-01-25T08:21:41;2.80;99.90
4530;DHT22;2277;51.626;7.516;2023-01-25T08:24:07;2.80;99.90
4530;DHT22;2277;51.626;7.516;2023-01-25T08:26:34;2.80;99.90
4530;DHT22;2277;51.626;7.516;2023-01-25T08:29:01;2.70;99.90
4530;DHT22;2277;51.626;7.516;2023-01-25T08:31:29;2.70;99.90
4530;DHT22;2277;51.626;7.516;2023-01-25T08:33:55;2.70;99.90
4530;DHT22;2277;51.626;7.516;2023-01-25T08:36:21;2.70;99.90
4530;DHT22;2277;51.626;7.516;2023-01-25T08:38:54;2.70;99.90
4530;DHT22;2277;51.626;7.516;2023-01-25T08:41:20;2.70;99.90
4530;DHT22;2277;51.626;7.516;2023-01-25T08:43:46;2.70;99.90
4530;DHT22;2277;51.626;7.516;2023-01-25T08:46:13;2.80;99.90
4530;DHT22;2277;51.626;7.516;2023-01-25T08:48:39;2.80;99.90
4530;DHT22;2277;51.626;7.516;2023-01-25T08:51:08;2.80;99.90
4530;DHT22;2277;51.626;7.516;2023-01-25T08:53:33;2.80;99.90
4530;DHT22;2277;51.626;7.516;2023-01-25T08:56:04;2.70;99.90
4530;DHT22;2277;51.626;7.516;2023-01-25T08:58:30;2.60;99.90
4530;DHT22;2277;51.626;7.516;2023-01-25T09:01:07;2.60;99.90
4530;DHT22;2277;51.626;7.516;2023-01-25T09:03:41;2.70;99.90
4530;DHT22;2277;51.626;7.516;2023-01-25T09:06:08;2.70;99.90
4530;DHT22;2277;51.626;7.516;2023-01-25T09:08:34;2.60;99.90
4530;DHT22;2277;51.626;7.516;2023-01-25T09:11:02;2.40;99.90
4530;DHT22;2277;51.626;7.516;2023-01-25T09:13:28;2.30;99.90
4530;DHT22;2277;51.626;7.516;2023-01-25T09:16:15;2.30;99.90
4530;DHT22;2277;51.626;7.516;2023-01-25T09:18:42;1.90;99.90
4530;DHT22;2277;51.626;7.516;2023-01-25T09:21:16;1.70;99.90
4530;DHT22;2277;51.626;7.516;2023-01-25T09:23:42;1.50;99.90
4530;DHT22;2277;51.626;7.516;2023-01-25T09:26:10;1.50;99.90
4530;DHT22;2277;51.626;7.516;2023-01-25T09:28:36;1.60;99.90
4530;DHT22;2277;51.626;7.516;2023-01-25T09:31:04;1.80;99.90
4530;DHT22;2277;51.626;7.516;2023-01-25T09:33:32;1.80;99.90
4530;DHT22;2277;51.626;7.516;2023-01-25T09:35:59;1.70;99.90
4530;DHT22;2277;51.626;7.516;2023-01-25T09:38:25;1.70;99.90
4530;DHT22;2277;51.626;7.516;2023-01-25T09:54:22;1.50;99.90
4530;DHT22;2277;51.626;7.516;2023-01-25T09:56:49;1.60;99.90
4530;DHT22;2277;51.626;7.516;2023-01-25T09:59:19;1.50;99.90
4530;DHT22;2277;51.626;7.516;2023-01-25T10:04:32;1.30;99.90
4530;DHT22;2277;51.626;7.516;2023-01-25T10:07:17;1.50;99.90
4530;DHT22;2277;51.626;7.516;2023-01-25T10:09:47;1.60;99.90
4530;DHT22;2277;51.626;7.516;2023-01-25T10:12:19;1.70;99.90
4530;DHT22;2277;51.626;7.516;2023-01-25T10:14:46;1.80;99.90
4530;DHT22;2277;51.626;7.516;2023-01-25T10:17:26;1.70;99.90
4530;DHT22;2277;51.626;7.516;2023-01-25T10:20:07;1.60;99.90
4530;DHT22;2277;51.626;7.516;2023-01-25T10:22:47;1.60;99.90
4530;DHT22;2277;51.626;7.516;2023-01-25T10:25:30;1.40;99.90
4530;DHT22;2277;51.626;7.516;2023-01-25T10:31:02;1.60;99.90
4530;DHT22;2277;51.626;7.516;2023-01-25T10:33:30;1.70;99.90
4530;DHT22;2277;51.626;7.516;2023-01-25T10:35:58;1.70;99.90
4530;DHT22;2277;51.626;7.516;2023-01-25T10:38:29;1.80;99.90
4530;DHT22;2277;51.626;7.516;2023-01-25T10:41:03;1.80;99.90
4530;DHT22;2277;51.626;7.516;2023-01-25T10:43:31;1.60;99.90
4530;DHT22;2277;51.626;7.516;2023-01-25T10:45:57;1.70;99.90
4530;DHT22;2277;51.626;7.516;2023-01-25T10:48:28;1.90;99.90
4530;DHT22;2277;51.626;7.516;2023-01-25T10:50:58;2.00;99.90
4530;DHT22;2277;51.626;7.516;2023-01-25T10:53:32;2.00;99.90
4530;DHT22;2277;51.626;7.516;2023-01-25T10:56:18;2.10;99.90
4530;DHT22;2277;51.626;7.516;2023-01-25T10:58:48;2.20;99.90
4530;DHT22;2277;51.626;7.516;2023-01-25T11:01:32;2.20;99.90
4530;DHT22;2277;51.626;7.516;2023-01-25T11:03:59;2.20;99.90
4530;DHT22;2277;51.626;7.516;2023-01-25T11:06:37;2.30;99.90
4530;DHT22;2277;51.626;7.516;2023-01-25T11:12:17;2.30;99.90
4530;DHT22;2277;51.626;7.516;2023-01-25T11:14:43;2.40;99.90
4530;DHT22;2277;51.626;7.516;2023-01-25T11:17:27;2.30;99.90
4530;DHT22;2277;51.626;7.516;2023-01-25T11:20:18;2.30;99.90
4530;DHT22;2277;51.626;7.516;2023-01-25T11:22:53;2.40;99.90
4530;DHT22;2277;51.626;7.516;2023-01-25T11:25:32;2.40;99.90
4530;DHT22;2277;51.626;7.516;2023-01-25T11:28:19;2.40;99.90
4530;DHT22;2277;51.626;7.516;2023-01-25T11:30:46;2.50;99.90
4530;DHT22;2277;51.626;7.516;2023-01-25T11:33:15;2.50;99.90
4530;DHT22;2277;51.626;7.516;2023-01-25T11:38:15;2.50;99.90
4530;DHT22;2277;51.626;7.516;2023-01-25T11:43:44;2.50;99.90
4530;DHT22;2277;51.626;7.516;2023-01-25T11:52:04;2.50;99.90
4530;DHT22;2277;51.626;7.516;2023-01-25T11:54:41;2.50;99.90
4530;DHT22;2277;51.626;7.516;2023-01-25T11:57:20;2.50;99.90
4530;DHT22;2277;51.626;7.516;2023-01-25T12:00:34;2.50;99.90
4530;DHT22;2277;51.626;7.516;2023-01-25T12:05:34;2.50;99.90
4530;DHT22;2277;51.626;7.516;2023-01-25T12:14:00;2.60;99.90
4530;DHT22;2277;51.626;7.516;2023-01-25T12:19:25;2.60;99.90
4530;DHT22;2277;51.626;7.516;2023-01-25T12:31:01;2.70;99.90
4530;DHT22;2277;51.626;7.516;2023-01-25T12:33:46;2.40;99.90
4530;DHT22;2277;51.626;7.516;2023-01-25T12:36:14;2.30;99.90
4530;DHT22;2277;51.626;7.516;2023-01-25T12:39:01;2.30;99.90
4530;DHT22;2277;51.626;7.516;2023-01-25T12:41:40;2.30;99.90
4530;DHT22;2277;51.626;7.516;2023-01-25T12:47:09;2.20;99.90
4530;DHT22;2277;51.626;7.516;2023-01-25T12:49:43;2.10;99.90
4530;DHT22;2277;51.626;7.516;2023-01-25T12:55:18;2.20;99.90
4530;DHT22;2277;51.626;7.516;2023-01-25T13:06:21;2.30;99.90
4530;DHT22;2277;51.626;7.516;2023-01-25T13:09:06;2.20;99.90
4530;DHT22;2277;51.626;7.516;2023-01-25T13:11:39;2.20;99.90
4530;DHT22;2277;51.626;7.516;2023-01-25T13:16:51;2.10;99.90
4530;DHT22;2277;51.626;7.516;2023-01-25T13:19:21;2.10;99.90
4530;DHT22;2277;51.626;7.516;2023-01-25T13:22:03;2.20;99.90
4530;DHT22;2277;51.626;7.516;2023-01-25T13:24:31;2.30;99.90
4530;DHT22;2277;51.626;7.516;2023-01-25T13:26:58;2.30;99.90
4530;DHT22;2277;51.626;7.516;2023-01-25T13:35:00;2.50;99.90
4530;DHT22;2277;51.626;7.516;2023-01-25T13:37:29;2.40;99.90
4530;DHT22;2277;51.626;7.516;2023-01-25T13:39:57;2.40;99.90
4530;DHT22;2277;51.626;7.516;2023-01-25T13:42:23;2.40;99.90
4530;DHT22;2277;51.626;7.516;2023-01-25T13:44:52;2.30;99.90
4530;DHT22;2277;51.626;7.516;2023-01-25T13:47:31;1.90;99.90
4530;DHT22;2277;51.626;7.516;2023-01-25T13:55:39;2.00;99.90
4530;DHT22;2277;51.626;7.516;2023-01-25T13:58:09;1.90;99.90
4530;DHT22;2277;51.626;7.516;2023-01-25T14:00:35;1.90;99.90
4530;DHT22;2277;51.626;7.516;2023-01-25T14:03:04;1.80;99.90
4530;DHT22;2277;51.626;7.516;2023-01-25T14:05:29;1.50;99.90
4530;DHT22;2277;51.626;7.516;2023-01-25T14:07:56;1.60;99.90
4530;DHT22;2277;51.626;7.516;2023-01-25T14:10:24;1.60;99.90
4530;DHT22;2277;51.626;7.516;2023-01-25T14:12:51;1.70;99.90
4530;DHT22;2277;51.626;7.516;2023-01-25T14:15:25;1.70;99.90
4530;DHT22;2277;51.626;7.516;2023-01-25T14:18:15;1.60;99.90
4530;DHT22;2277;51.626;7.516;2023-01-25T14:20:45;1.70;99.90
4530;DHT22;2277;51.626;7.516;2023-01-25T14:23:21;1.80;99.90
4530;DHT22;2277;51.626;7.516;2023-01-25T14:25:47;1.90;99.90
4530;DHT22;2277;51.626;7.516;2023-01-25T14:28:13;1.90;99.90
4530;DHT22;2277;51.626;7.516;2023-01-25T14:30:40;2.00;99.90
4530;DHT22;2277;51.626;7.516;2023-01-25T14:33:28;2.00;99.90
4530;DHT22;2277;51.626;7.516;2023-01-25T14:36:01;2.00;99.90
4530;DHT22;2277;51.626;7.516;2023-01-25T14:38:28;1.90;99.90
4530;DHT22;2277;51.626;7.516;2023-01-25T14:43:41;2.00;99.90
4530;DHT22;2277;51.626;7.516;2023-01-25T14:46:37;2.10;99.90
4530;DHT22;2277;51.626;7.516;2023-01-25T14:54:19;2.00;99.90
4530;DHT22;2277;51.626;7.516;2023-01-25T14:56:47;1.80;99.90
4530;DHT22;2277;51.626;7.516;2023-01-25T14:59:43;1.80;99.90
4530;DHT22;2277;51.626;7.516;2023-01-25T15:02:38;1.90;99.90
4530;DHT22;2277;51.626;7.516;2023-01-25T15:05:19;1.90;99.90
4530;DHT22;2277;51.626;7.516;2023-01-25T15:07:48;1.90;99.90
4530;DHT22;2277;51.626;7.516;2023-01-25T15:10:17;1.80;99.90
4530;DHT22;2277;51.626;7.516;2023-01-25T15:13:02;1.90;99.90
4530;DHT22;2277;51.626;7.516;2023-01-25T15:15:31;1.80;99.90
4530;DHT22;2277;51.626;7.516;2023-01-25T15:17:57;1.80;99.90
4530;DHT22;2277;51.626;7.516;2023-01-25T15:20:40;1.70;99.90
4530;DHT22;2277;51.626;7.516;2023-01-25T15:25:55;1.70;99.90
4530;DHT22;2277;51.626;7.516;2023-01-25T15:28:23;1.60;99.90
4530;DHT22;2277;51.626;7.516;2023-01-25T15:30:49;1.60;99.90
4530;DHT22;2277;51.626;7.516;2023-01-25T15:33:23;1.60;99.90
4530;DHT22;2277;51.626;7.516;2023-01-25T15:35:50;1.70;99.90
4530;DHT22;2277;51.626;7.516;2023-01-25T15:38:16;1.80;99.90
4530;DHT22;2277;51.626;7.516;2023-01-25T15:40:43;1.90;99.90
4530;DHT22;2277;51.626;7.516;2023-01-25T15:43:12;1.90;99.90
4530;DHT22;2277;51.626;7.516;2023-01-25T15:45:43;2.00;99.90
4530;DHT22;2277;51.626;7.516;2023-01-25T15:48:17;2.10;99.90
4530;DHT22;2277;51.626;7.516;2023-01-25T15:50:44;2.10;99.90
4530;DHT22;2277;51.626;7.516;2023-01-25T15:53:13;2.20;99.90
4530;DHT22;2277;51.626;7.516;2023-01-25T15:55:39;2.20;99.90
4530;DHT22;2277;51.626;7.516;2023-01-25T15:58:05;2.20;99.90
4530;DHT22;2277;51.626;7.516;2023-01-25T16:00:30;2.20;99.90
4530;DHT22;2277;51.626;7.516;2023-01-25T16:02:56;2.30;99.90
4530;DHT22;2277;51.626;7.516;2023-01-25T16:05:21;2.30;99.90
4530;DHT22;2277;51.626;7.516;2023-01-25T16:07:47;2.30;99.90
4530;DHT22;2277;51.626;7.516;2023-01-25T16:10:22;2.40;99.90
4530;DHT22;2277;51.626;7.516;2023-01-25T16:12:49;2.40;99.90
4530;DHT22;2277;51.626;7.516;2023-01-25T16:15:15;2.40;99.90
4530;DHT22;2277;51.626;7.516;2023-01-25T16:17:41;2.40;99.90
4530;DHT22;2277;51.626;7.516;2023-01-25T16:20:12;2.40;99.90
4530;DHT22;2277;51.626;7.516;2023-01-25T16:22:39;2.50;99.90
4530;DHT22;2277;51.626;7.516;2023-01-25T16:25:05;2.50;99.90
4530;DHT22;2277;51.626;7.516;2023-01-25T16:27:33;2.50;99.90
4530;DHT22;2277;51.626;7.516;2023-01-25T16:30:04;2.40;99.90
4530;DHT22;2277;51.626;7.516;2023-01-25T16:32:30;2.30;99.90
4530;DHT22;2277;51.626;7.516;2023-01-25T16:34:56;2.30;99.90
4530;DHT22;2277;51.626;7.516;2023-01-25T16:37:22;2.30;99.90
4530;DHT22;2277;51.626;7.516;2023-01-25T16:39:47;2.30;99.90
4530;DHT22;2277;51.626;7.516;2023-01-25T16:42:14;2.30;99.90
4530;DHT22;2277;51.626;7.516;2023-01-25T16:44:40;2.30;99.90
4530;DHT22;2277;51.626;7.516;2023-01-25T16:47:05;2.30;99.90
4530;DHT22;2277;51.626;7.516;2023-01-25T16:49:31;2.30;99.90
4530;DHT22;2277;51.626;7.516;2023-01-25T16:51:58;2.40;99.90
4530;DHT22;2277;51.626;7.516;2023-01-25T16:54:26;2.50;99.90
4530;DHT22;2277;51.626;7.516;2023-01-25T16:56:52;2.50;99.90
4530;DHT22;2277;51.626;7.516;2023-01-25T16:59:20;2.40;99.90
4530;DHT22;2277;51.626;7.516;2023-01-25T17:01:46;2.40;99.90
4530;DHT22;2277;51.626;7.516;2023-01-25T17:04:12;2.50;99.90
4530;DHT22;2277;51.626;7.516;2023-01-25T17:06:41;2.50;99.90
4530;DHT22;2277;51.626;7.516;2023-01-25T17:09:11;2.50;99.90
4530;DHT22;2277;51.626;7.516;2023-01-25T17:11:37;2.50;99.90
4530;DHT22;2277;51.626;7.516;2023-01-25T17:14:04;2.50;99.90
4530;DHT22;2277;51.626;7.516;2023-01-25T17:16:30;2.50;99.90
4530;DHT22;2277;51.626;7.516;2023-01-25T17:19:05;2.40;99.90
4530;DHT22;2277;51.626;7.516;2023-01-25T17:21:32;2.40;99.90
4530;DHT22;2277;51.626;7.516;2023-01-25T17:23:59;2.40;99.90
4530;DHT22;2277;51.626;7.516;2023-01-25T17:26:27;2.50;99.90
4530;DHT22;2277;51.626;7.516;2023-01-25T17:28:58;2.50;99.90
4530;DHT22;2277;51.626;7.516;2023-01-25T17:31:31;2.50;99.90
4530;DHT22;2277;51.626;7.516;2023-01-25T17:33:59;2.50;99.90
4530;DHT22;2277;51.626;7.516;2023-01-25T17:36:25;2.50;99.90
4530;DHT22;2277;51.626;7.516;2023-01-25T17:38:50;2.50;99.90
4530;DHT22;2277;51.626;7.516;2023-01-25T17:41:18;2.50;99.90
4530;DHT22;2277;51.626;7.516;2023-01-25T17:43:44;2.50;99.90
4530;DHT22;2277;51.626;7.516;2023-01-25T17:46:21;2.50;99.90
4530;DHT22;2277;51.626;7.516;2023-01-25T17:48:49;2.50;99.90
4530;DHT22;2277;51.626;7.516;2023-01-25T17:51:15;2.50;99.90
4530;DHT22;2277;51.626;7.516;2023-01-25T17:53:41;2.50;99.90
4530;DHT22;2277;51.626;7.516;2023-01-25T17:56:07;2.50;99.90
4530;DHT22;2277;51.626;7.516;2023-01-25T17:58:36;2.50;99.90
4530;DHT22;2277;51.626;7.516;2023-01-25T18:01:16;2.40;99.90
4530;DHT22;2277;51.626;7.516;2023-01-25T18:03:43;2.40;99.90
4530;DHT22;2277;51.626;7.516;2023-01-25T18:06:10;2.50;99.90
4530;DHT22;2277;51.626;7.516;2023-01-25T18:08:39;2.40;99.90
4530;DHT22;2277;51.626;7.516;2023-01-25T18:11:10;2.40;99.90
4530;DHT22;2277;51.626;7.516;2023-01-25T18:13:40;2.30;99.90
4530;DHT22;2277;51.626;7.516;2023-01-25T18:16:07;2.30;99.90
4530;DHT22;2277;51.626;7.516;2023-01-25T18:18:34;2.30;99.90
4530;DHT22;2277;51.626;7.516;2023-01-25T18:21:05;2.40;99.90